SBFZ Airport Information

Runway Information
Runway 13 Length 8350 ft width 148 ft
Elevation 82 ft Threshold 0 ft Heading 105
Runway 31 Length 8350 ft Width 148 ft
Elevation 65 ft Threshold 0 ft Heading 285
Airport Frequencies
Type APP Name FORTALEZA Frequency 133 MHZ
Type ATIS Name ATIS Frequency 127.7 MHZ
Type GND Name GND Frequency 121.95 MHZ
Type OPS Name FORTALEZA Frequency 122.5 MHZ
Type TWR Name FORTALEZA Frequency 129 MHZ
Airport Navaids
Type VOR-DME Name Fortaleza Frequency 114100 KHZ
Type NDB Name Fortaleza Frequency 260 KHZ
Airport Weather Information & NOTAM
ADDS - METARS form results

(1436 UTC 22 February 2018)
 
METAR text: SBFZ 221400Z 06002KT 4000 -RA BKN013 OVC100 23/23 Q1013 RETSRA
Conditions at: SBFZ (FORTALEZA/PINTO , BR) observed 1400 UTC 22 February 2018
Temperature: 23.0°C (73°F)
Dewpoint: 23.0°C (73°F) [RH = 100%]
Pressure (altimeter): 29.91 inches Hg (1013.0 mb)
Winds: from the ENE (60 degrees) at 2 MPH (2 knots; 1.0 m/s)
Visibility: 2.49 miles (4.01 km)
Ceiling: 1300 feet AGL
Clouds: broken clouds at 1300 feet AGL
overcast cloud deck at 10000 feet AGL
Weather: -RA  (light rain)